createdAt,value
2018-05-13T00:00:30.296Z,19.00
2018-05-13T00:01:36.595Z,17.60
2018-05-13T00:02:42.582Z,21.08
2018-05-13T00:03:48.905Z,19.52
2018-05-13T00:04:55.958Z,19.98
2018-05-13T00:06:01.908Z,20.37
2018-05-13T00:07:08.224Z,19.48
2018-05-13T00:08:14.562Z,19.90
2018-05-13T00:09:21.847Z,18.80
2018-05-13T00:10:27.919Z,19.90
2018-05-13T00:11:34.203Z,22.52
2018-05-13T00:12:40.529Z,22.87
2018-05-13T00:13:46.838Z,20.80
2018-05-13T00:14:58.326Z,19.50
2018-05-13T00:16:04.670Z,22.45
2018-05-13T00:17:10.994Z,20.48
2018-05-13T00:18:17.314Z,24.73
2018-05-13T00:19:23.620Z,20.00
2018-05-13T00:20:29.917Z,20.58
2018-05-13T00:21:36.222Z,20.35
2018-05-13T00:22:45.425Z,20.83
2018-05-13T00:23:52.287Z,21.17
2018-05-13T00:24:58.524Z,22.87
2018-05-13T00:26:04.841Z,19.70
2018-05-13T00:27:10.883Z,25.05
2018-05-13T00:28:17.290Z,22.33
2018-05-13T00:29:23.546Z,23.08
2018-05-13T00:30:30.393Z,20.73
2018-05-13T00:31:37.372Z,20.88
2018-05-13T00:32:43.654Z,23.02
2018-05-13T00:33:50.141Z,21.37
2018-05-13T00:34:57.112Z,21.75
2018-05-13T00:36:03.066Z,23.15
2018-05-13T00:37:09.077Z,21.58
2018-05-13T00:38:15.518Z,20.20
2018-05-13T00:39:21.806Z,20.90
2018-05-13T00:40:28.149Z,21.00
2018-05-13T00:41:34.451Z,23.05
2018-05-13T00:42:40.766Z,22.42
2018-05-13T00:43:47.737Z,24.50
2018-05-13T00:44:54.237Z,22.62
2018-05-13T00:46:00.484Z,22.13
2018-05-13T00:47:06.540Z,23.80
2018-05-13T00:48:12.841Z,21.85
2018-05-13T00:49:19.250Z,23.27
2018-05-13T00:50:25.583Z,24.52
2018-05-13T00:51:31.880Z,23.92
2018-05-13T00:52:38.380Z,23.02
2018-05-13T00:53:44.915Z,21.83
2018-05-13T00:54:55.679Z,25.45
2018-05-13T00:56:01.921Z,25.62
2018-05-13T00:57:08.233Z,24.02
2018-05-13T00:58:14.796Z,26.90
2018-05-13T00:59:24.052Z,23.33
2018-05-13T01:00:34.634Z,21.08
2018-05-13T01:01:39.580Z,22.98
2018-05-13T01:02:45.824Z,22.37
2018-05-13T01:03:53.081Z,25.00
2018-05-13T01:04:59.409Z,25.92
2018-05-13T01:06:05.549Z,23.02
2018-05-13T01:07:12.691Z,24.52
2018-05-13T01:08:18.388Z,25.65
2018-05-13T01:09:24.601Z,29.67
2018-05-13T01:10:30.820Z,25.80
2018-05-13T01:11:37.136Z,26.23
2018-05-13T01:12:44.087Z,27.27
2018-05-13T01:13:50.405Z,29.12
2018-05-13T01:14:56.385Z,27.65
2018-05-13T01:16:02.693Z,30.02
2018-05-13T01:17:09.068Z,23.65
2018-05-13T01:18:15.359Z,25.88
2018-05-13T01:19:21.649Z,26.58
2018-05-13T01:20:28.688Z,26.05
2018-05-13T01:21:34.935Z,25.50
2018-05-13T01:22:41.274Z,24.87
2018-05-13T01:23:48.769Z,22.65
2018-05-13T01:24:55.046Z,26.35
2018-05-13T01:26:01.388Z,22.20
2018-05-13T01:27:07.677Z,24.12
2018-05-13T01:28:14.174Z,24.02
2018-05-13T01:29:20.499Z,26.65
2018-05-13T01:30:26.833Z,24.12
2018-05-13T01:31:34.990Z,25.62
2018-05-13T01:32:41.269Z,26.90
2018-05-13T01:33:47.222Z,24.77
2018-05-13T01:34:53.608Z,23.58
2018-05-13T01:36:01.496Z,22.87
2018-05-13T01:37:09.643Z,24.45
2018-05-13T01:38:15.919Z,26.10
2018-05-13T01:39:22.061Z,25.60
2018-05-13T01:40:28.317Z,26.10
2018-05-13T01:41:34.625Z,25.35
2018-05-13T01:42:40.736Z,23.27
2018-05-13T01:43:47.079Z,22.15
2018-05-13T01:44:53.385Z,22.48
2018-05-13T01:45:59.703Z,23.85
2018-05-13T01:47:06.028Z,24.42
2018-05-13T01:48:12.970Z,23.38
2018-05-13T01:49:19.044Z,25.30
2018-05-13T01:50:25.014Z,24.48
2018-05-13T01:51:32.536Z,23.23
2018-05-13T01:52:41.197Z,21.98
2018-05-13T01:53:47.561Z,24.67
2018-05-13T01:54:53.882Z,23.48
2018-05-13T01:56:00.276Z,22.48
2018-05-13T01:57:06.746Z,22.70
2018-05-13T01:58:13.213Z,21.52
2018-05-13T01:59:20.110Z,23.45
2018-05-13T02:00:26.448Z,25.62
2018-05-13T02:01:32.775Z,25.12
2018-05-13T02:02:39.063Z,23.38
2018-05-13T02:03:45.088Z,22.48
2018-05-13T02:04:51.410Z,24.15
2018-05-13T02:05:57.701Z,26.45
2018-05-13T02:07:03.629Z,22.13
2018-05-13T02:08:09.830Z,24.30
2018-05-13T02:09:15.846Z,24.60
2018-05-13T02:10:22.237Z,22.80
2018-05-13T02:11:28.515Z,21.98
2018-05-13T02:12:34.852Z,24.98
2018-05-13T02:13:41.143Z,26.98
2018-05-13T02:14:47.493Z,21.58
2018-05-13T02:15:53.756Z,23.27
2018-05-13T02:17:00.090Z,23.08
2018-05-13T02:18:07.130Z,24.92
2018-05-13T02:19:14.190Z,26.15
2018-05-13T02:20:20.493Z,23.77
2018-05-13T02:21:26.444Z,26.98
2018-05-13T02:22:32.772Z,23.33
2018-05-13T02:23:39.082Z,23.98
2018-05-13T02:24:46.252Z,25.17
2018-05-13T02:25:52.520Z,27.17
2018-05-13T02:27:02.045Z,25.50
2018-05-13T02:28:08.785Z,24.67
2018-05-13T02:29:15.085Z,27.75
2018-05-13T02:30:21.318Z,25.27
2018-05-13T02:31:27.601Z,30.65
2018-05-13T02:32:33.878Z,29.25
2018-05-13T02:33:41.912Z,26.17
2018-05-13T02:34:48.509Z,26.00
2018-05-13T02:35:54.789Z,25.75
2018-05-13T02:37:01.687Z,27.02
2018-05-13T02:38:08.022Z,25.37
2018-05-13T02:39:13.994Z,24.92
2018-05-13T02:40:20.045Z,23.75
2018-05-13T02:41:25.975Z,22.55
2018-05-13T02:42:32.257Z,24.83
2018-05-13T02:43:39.456Z,26.27
2018-05-13T02:44:45.802Z,25.48
2018-05-13T02:45:52.077Z,22.85
2018-05-13T02:46:58.972Z,24.63
2018-05-13T02:48:05.319Z,23.87
2018-05-13T02:49:11.608Z,23.90
2018-05-13T02:50:17.661Z,21.77
2018-05-13T02:51:23.945Z,24.25
2018-05-13T02:52:30.276Z,25.15
2018-05-13T02:53:36.754Z,26.60
2018-05-13T02:54:43.619Z,22.02
2018-05-13T02:55:50.049Z,24.55
2018-05-13T02:56:56.839Z,24.67
2018-05-13T02:58:03.137Z,26.30
2018-05-13T02:59:10.252Z,23.08
2018-05-13T03:00:17.101Z,25.55
2018-05-13T03:01:23.429Z,25.95
2018-05-13T03:02:29.738Z,22.27
2018-05-13T03:03:36.057Z,24.00
2018-05-13T03:04:42.362Z,25.40
2018-05-13T03:05:48.673Z,25.62
2018-05-13T03:06:55.276Z,25.88
2018-05-13T03:08:01.612Z,27.62
2018-05-13T03:09:07.612Z,24.35
2018-05-13T03:10:14.359Z,25.30
2018-05-13T03:11:20.671Z,23.30
2018-05-13T03:12:26.939Z,24.87
2018-05-13T03:13:32.967Z,22.62
2018-05-13T03:14:39.945Z,25.05
2018-05-13T03:15:46.968Z,22.95
2018-05-13T03:16:53.383Z,24.80
2018-05-13T03:17:59.414Z,23.85
2018-05-13T03:19:05.833Z,25.12
2018-05-13T03:20:11.982Z,24.30
2018-05-13T03:21:18.043Z,28.27
2018-05-13T03:22:24.481Z,22.90
2018-05-13T03:23:30.806Z,26.55
2018-05-13T03:24:37.089Z,23.65
2018-05-13T03:25:43.435Z,25.20
2018-05-13T03:26:49.716Z,26.25
2018-05-13T03:27:56.033Z,27.33
2018-05-13T03:29:02.336Z,26.37
2018-05-13T03:30:08.571Z,24.65
2018-05-13T03:31:15.970Z,22.55
2018-05-13T03:32:22.323Z,27.25
2018-05-13T03:33:28.622Z,27.05
2018-05-13T03:34:34.926Z,27.62
2018-05-13T03:35:42.191Z,25.25
2018-05-13T03:36:48.489Z,26.70
2018-05-13T03:37:54.775Z,24.80
2018-05-13T03:39:01.548Z,25.90
2018-05-13T03:40:07.493Z,24.87
2018-05-13T03:41:13.854Z,26.40
2018-05-13T03:42:20.630Z,25.42
2018-05-13T03:43:26.869Z,26.42
2018-05-13T03:44:33.170Z,25.92
2018-05-13T03:45:39.616Z,24.75
2018-05-13T03:46:46.015Z,25.88
2018-05-13T03:47:52.551Z,25.65
2018-05-13T03:48:59.289Z,28.38
2018-05-13T03:50:06.066Z,27.17
2018-05-13T03:51:12.612Z,25.67
2018-05-13T03:52:19.028Z,24.25
2018-05-13T03:53:25.289Z,30.17
2018-05-13T03:54:32.047Z,28.80
2018-05-13T03:55:38.420Z,29.30
2018-05-13T03:56:50.996Z,27.73
2018-05-13T03:57:57.511Z,30.30
2018-05-13T03:59:03.822Z,28.92
2018-05-13T04:00:11.803Z,30.02
2018-05-13T04:01:19.036Z,28.67
2018-05-13T04:02:25.366Z,29.58
2018-05-13T04:03:31.643Z,27.15
2018-05-13T04:04:37.957Z,27.73
2018-05-13T04:05:44.042Z,27.00
2018-05-13T04:06:50.469Z,28.38
2018-05-13T04:09:59.026Z,28.15
2018-05-13T04:11:17.261Z,29.40
2018-05-13T04:12:34.336Z,29.75
2018-05-13T04:13:51.493Z,28.45
2018-05-13T04:15:08.506Z,26.42
2018-05-13T04:16:14.545Z,27.20
2018-05-13T04:17:20.829Z,26.85
2018-05-13T04:18:27.143Z,28.67
2018-05-13T04:19:34.377Z,29.12
2018-05-13T04:20:40.810Z,34.40
2018-05-13T04:21:47.115Z,27.27
2018-05-13T04:22:54.322Z,31.00
2018-05-13T04:24:00.648Z,28.45
2018-05-13T04:25:07.952Z,30.67
2018-05-13T04:26:14.339Z,32.50
2018-05-13T04:27:20.680Z,29.15
2018-05-13T04:28:27.414Z,33.53
2018-05-13T04:29:33.732Z,28.87
2018-05-13T04:30:40.040Z,28.48
2018-05-13T04:31:46.424Z,27.25
2018-05-13T04:32:52.729Z,27.42
2018-05-13T04:33:59.024Z,33.17
2018-05-13T04:35:06.240Z,29.90
2018-05-13T04:36:12.572Z,33.00
2018-05-13T04:37:18.856Z,30.08
2018-05-13T04:38:25.177Z,32.55
2018-05-13T04:39:31.465Z,32.35
2018-05-13T04:40:37.801Z,33.95
2018-05-13T04:41:44.030Z,33.58
2018-05-13T04:42:50.392Z,33.38
2018-05-13T04:43:56.689Z,35.00
2018-05-13T04:45:03.094Z,32.85
2018-05-13T04:46:09.358Z,31.95
2018-05-13T04:47:15.662Z,32.47
2018-05-13T04:48:21.985Z,34.28
2018-05-13T04:49:28.259Z,33.88
2018-05-13T04:50:34.603Z,32.35
2018-05-13T04:51:40.936Z,33.97
2018-05-13T04:52:47.185Z,35.95
2018-05-13T04:53:53.406Z,35.15
2018-05-13T04:54:59.600Z,35.13
2018-05-13T04:56:05.953Z,31.92
2018-05-13T04:57:12.289Z,31.70
2018-05-13T04:58:18.600Z,31.48
2018-05-13T04:59:24.897Z,35.65
2018-05-13T05:00:31.192Z,36.40
2018-05-13T05:01:37.525Z,35.40
2018-05-13T05:02:45.002Z,32.00
2018-05-13T05:03:52.171Z,34.40
2018-05-13T05:04:58.734Z,35.35
2018-05-13T05:06:05.002Z,31.92
2018-05-13T05:07:12.185Z,35.83
2018-05-13T05:08:18.452Z,29.27
2018-05-13T05:09:24.873Z,29.98
2018-05-13T05:10:31.181Z,35.22
2018-05-13T05:11:37.518Z,31.60
2018-05-13T05:12:43.831Z,37.38
2018-05-13T05:13:50.098Z,29.75
2018-05-13T05:14:56.401Z,31.73
2018-05-13T05:16:02.837Z,30.08
2018-05-13T05:17:09.910Z,33.72
2018-05-13T05:18:16.173Z,32.45
2018-05-13T05:19:23.984Z,33.35
2018-05-13T05:20:31.055Z,31.85
2018-05-13T05:21:37.742Z,33.28
2018-05-13T05:22:44.091Z,31.92
2018-05-13T05:23:50.361Z,32.22
2018-05-13T05:24:56.725Z,34.25
2018-05-13T05:26:02.958Z,33.22
2018-05-13T05:27:09.307Z,31.48
2018-05-13T05:28:15.525Z,33.25
2018-05-13T05:29:21.823Z,31.70
2018-05-13T05:30:28.162Z,31.77
2018-05-13T05:31:35.506Z,40.65
2018-05-13T05:32:42.826Z,30.15
2018-05-13T05:33:49.168Z,32.70
2018-05-13T05:34:56.107Z,34.83
2018-05-13T05:36:03.078Z,35.05
2018-05-13T05:37:09.407Z,34.15
2018-05-13T05:38:15.846Z,31.90
2018-05-13T05:39:22.225Z,34.33
2018-05-13T05:40:28.581Z,33.22
2018-05-13T05:41:34.830Z,35.33
2018-05-13T05:42:40.754Z,32.00
2018-05-13T05:43:47.736Z,33.90
2018-05-13T05:44:53.983Z,30.33
2018-05-13T05:46:00.321Z,35.13
2018-05-13T05:47:07.439Z,31.85
2018-05-13T05:48:13.845Z,30.25
2018-05-13T05:49:20.422Z,33.55
2018-05-13T05:50:26.788Z,32.80
2018-05-13T05:51:33.308Z,30.17
2018-05-13T05:52:39.642Z,31.05
2018-05-13T05:53:45.950Z,30.27
2018-05-13T05:54:52.285Z,28.15
2018-05-13T05:55:58.655Z,32.83
2018-05-13T05:57:04.293Z,33.22
2018-05-13T05:58:10.688Z,29.92
2018-05-13T05:59:16.965Z,30.80
2018-05-13T06:00:23.300Z,32.28
2018-05-13T06:01:30.286Z,28.87
2018-05-13T06:02:37.697Z,28.02
2018-05-13T06:03:44.502Z,29.73
2018-05-13T06:04:50.741Z,28.10
2018-05-13T06:05:57.161Z,28.05
2018-05-13T06:07:03.753Z,27.75
2018-05-13T06:08:10.173Z,29.90
2018-05-13T06:09:16.133Z,32.53
2018-05-13T06:10:22.697Z,30.85
2018-05-13T06:11:28.972Z,27.48
2018-05-13T06:12:35.321Z,29.58
2018-05-13T06:13:41.996Z,29.02
2018-05-13T06:14:49.178Z,30.52
2018-05-13T06:15:55.589Z,27.13
2018-05-13T06:17:01.887Z,28.02
2018-05-13T06:18:08.596Z,26.95
2018-05-13T06:19:15.200Z,30.58
2018-05-13T06:20:22.568Z,28.15
2018-05-13T06:21:28.791Z,29.27
2018-05-13T06:22:35.263Z,30.45
2018-05-13T06:23:41.621Z,30.05
2018-05-13T06:24:48.122Z,30.88
2018-05-13T06:25:54.356Z,31.42
2018-05-13T06:27:01.364Z,33.60
2018-05-13T06:28:07.869Z,29.23
2018-05-13T06:29:14.149Z,27.60
2018-05-13T06:30:20.597Z,27.83
2018-05-13T06:31:28.149Z,29.10
2018-05-13T06:32:35.863Z,26.98
2018-05-13T06:33:42.207Z,28.00
2018-05-13T06:34:48.625Z,27.27
2018-05-13T06:35:55.036Z,28.17
2018-05-13T06:37:01.859Z,26.17
2018-05-13T06:38:08.398Z,26.20
2018-05-13T06:39:14.693Z,27.48
2018-05-13T06:40:22.087Z,27.50
2018-05-13T06:41:29.319Z,25.45
2018-05-13T06:42:36.981Z,26.37
2018-05-13T06:43:44.897Z,25.95
2018-05-13T06:44:52.309Z,26.45
2018-05-13T06:45:59.883Z,25.67
2018-05-13T06:47:06.960Z,24.23
2018-05-13T06:48:13.881Z,27.17
2018-05-13T06:49:21.188Z,22.40
2018-05-13T06:50:27.733Z,24.87
2018-05-13T06:51:34.857Z,25.55
2018-05-13T06:52:41.604Z,22.83
2018-05-13T06:53:49.636Z,23.23
2018-05-13T06:54:55.955Z,22.05
2018-05-13T06:56:03.708Z,19.62
2018-05-13T06:57:10.664Z,19.35
2018-05-13T06:58:18.466Z,23.70
2018-05-13T06:59:25.300Z,20.92
2018-05-13T07:00:32.695Z,20.80
2018-05-13T07:01:39.757Z,19.75
2018-05-13T07:02:46.787Z,19.70
2018-05-13T07:03:54.386Z,20.05
2018-05-13T07:05:00.868Z,18.15
2018-05-13T07:06:07.492Z,18.73
2018-05-13T07:07:14.284Z,18.37
2018-05-13T07:08:21.134Z,20.70
2018-05-13T07:09:29.126Z,20.50
2018-05-13T07:10:36.239Z,20.00
2018-05-13T07:11:43.345Z,19.92
2018-05-13T07:12:49.922Z,19.48
2018-05-13T07:13:57.995Z,19.67
2018-05-13T07:15:04.535Z,19.73
2018-05-13T07:16:11.737Z,19.08
2018-05-13T07:17:18.471Z,19.08
2018-05-13T07:18:25.052Z,19.62
2018-05-13T07:19:32.720Z,18.25
2018-05-13T07:20:39.239Z,19.00
2018-05-13T07:21:47.060Z,19.65
2018-05-13T07:22:54.225Z,18.40
2018-05-13T07:24:02.350Z,17.10
2018-05-13T07:25:10.087Z,19.62
2018-05-13T07:26:17.160Z,18.80
2018-05-13T07:27:25.362Z,17.90
2018-05-13T07:28:31.905Z,18.80
2018-05-13T07:29:40.854Z,18.52
2018-05-13T07:30:47.815Z,17.27
2018-05-13T07:31:54.535Z,17.10
2018-05-13T07:33:01.363Z,16.70
2018-05-13T07:34:08.182Z,16.67
2018-05-13T07:35:14.806Z,15.65
2018-05-13T07:36:22.035Z,16.27
2018-05-13T07:37:28.712Z,16.27
2018-05-13T07:38:36.296Z,15.65
2018-05-13T07:39:44.276Z,15.90
2018-05-13T07:40:52.096Z,18.27
2018-05-13T07:41:58.806Z,17.27
2018-05-13T07:43:05.850Z,17.15
2018-05-13T07:44:12.565Z,16.15
2018-05-13T07:45:19.270Z,16.77
2018-05-13T07:46:27.265Z,16.90
2018-05-13T07:47:33.874Z,17.08
2018-05-13T07:48:41.013Z,17.23
2018-05-13T07:49:48.527Z,17.10
2018-05-13T07:50:55.171Z,16.73
2018-05-13T07:52:02.077Z,16.73
2018-05-13T07:53:08.488Z,16.95
2018-05-13T07:54:15.411Z,16.08
2018-05-13T07:55:22.337Z,18.05
2018-05-13T07:56:29.467Z,19.20
2018-05-13T07:57:35.860Z,17.67
2018-05-13T07:58:42.681Z,15.55
2018-05-13T07:59:50.095Z,18.67
2018-05-13T08:00:56.667Z,17.55
2018-05-13T08:02:03.586Z,16.75
2018-05-13T08:03:10.507Z,16.40
2018-05-13T08:04:16.964Z,16.85
2018-05-13T08:05:23.482Z,16.12
2018-05-13T08:06:29.885Z,16.95
2018-05-13T08:07:36.184Z,16.55
2018-05-13T08:08:42.788Z,17.42
2018-05-13T08:09:49.511Z,17.10
2018-05-13T08:10:56.537Z,15.45
2018-05-13T08:12:03.055Z,15.00
2018-05-13T08:13:10.070Z,16.25
2018-05-13T08:14:18.257Z,16.73
2018-05-13T08:15:24.856Z,16.75
2018-05-13T08:16:31.094Z,15.00
2018-05-13T08:17:37.475Z,16.42
2018-05-13T08:18:44.100Z,15.32
2018-05-13T08:19:50.591Z,16.10
2018-05-13T08:20:57.022Z,15.13
2018-05-13T08:22:04.339Z,14.50
2018-05-13T08:23:10.889Z,18.90
2018-05-13T08:24:17.295Z,17.25
2018-05-13T08:25:24.054Z,15.45
2018-05-13T08:26:30.439Z,14.87
2018-05-13T08:27:36.861Z,16.77
2018-05-13T08:28:43.424Z,15.07
2018-05-13T08:29:50.086Z,14.38
2018-05-13T08:30:56.413Z,15.20
2018-05-13T08:32:02.681Z,14.52
2018-05-13T08:33:09.329Z,15.60
2018-05-13T08:34:16.541Z,14.93
2018-05-13T08:35:22.889Z,14.95
2018-05-13T08:36:29.697Z,14.38
2018-05-13T08:37:36.827Z,13.27
2018-05-13T08:38:43.121Z,14.15
2018-05-13T08:39:50.878Z,15.65
2018-05-13T08:40:57.405Z,13.55
2018-05-13T08:42:04.799Z,14.55
2018-05-13T08:43:11.967Z,13.30
2018-05-13T08:44:18.371Z,14.23
2018-05-13T08:45:25.108Z,13.85
2018-05-13T08:46:31.517Z,13.98
2018-05-13T08:47:38.031Z,15.20
2018-05-13T08:48:44.394Z,13.50
2018-05-13T08:49:51.768Z,12.68
2018-05-13T08:50:58.097Z,12.73
2018-05-13T08:52:04.430Z,12.35
2018-05-13T08:53:11.540Z,11.23
2018-05-13T08:54:18.218Z,12.82
2018-05-13T08:55:24.489Z,13.30
2018-05-13T08:56:31.603Z,11.55
2018-05-13T08:57:39.010Z,12.35
2018-05-13T08:58:45.032Z,13.20
2018-05-13T08:59:51.757Z,12.50
2018-05-13T09:00:59.316Z,11.52
2018-05-13T09:02:05.828Z,11.98
2018-05-13T09:03:12.373Z,11.73
2018-05-13T09:04:18.738Z,11.47
2018-05-13T09:05:25.003Z,12.48
2018-05-13T09:06:31.307Z,11.23
2018-05-13T09:07:37.876Z,10.68
2018-05-13T09:08:43.892Z,11.43
2018-05-13T09:09:50.214Z,11.77
2018-05-13T09:10:56.829Z,12.32
2018-05-13T09:12:03.141Z,10.60
2018-05-13T09:13:10.851Z,10.90
2018-05-13T09:14:17.890Z,10.90
2018-05-13T09:15:24.647Z,10.60
2018-05-13T09:16:31.247Z,10.03
2018-05-13T09:17:37.618Z,10.40
2018-05-13T09:18:43.980Z,9.90
2018-05-13T09:19:49.955Z,10.70
2018-05-13T09:20:56.614Z,10.07
2018-05-13T09:22:03.432Z,9.85
2018-05-13T09:23:09.643Z,9.73
2018-05-13T09:24:15.935Z,10.18
2018-05-13T09:25:22.160Z,9.40
2018-05-13T09:26:28.904Z,9.80
2018-05-13T09:27:35.073Z,9.73
2018-05-13T09:28:42.056Z,10.40
2018-05-13T09:29:49.080Z,8.80
2018-05-13T09:30:55.025Z,8.33
2018-05-13T09:32:01.003Z,7.77
2018-05-13T09:33:07.298Z,8.90
2018-05-13T09:34:14.877Z,7.22
2018-05-13T09:35:21.198Z,7.40
2018-05-13T09:36:27.288Z,6.83
2018-05-13T09:37:33.641Z,6.40
2018-05-13T09:38:39.874Z,6.83
2018-05-13T09:39:46.065Z,6.47
2018-05-13T09:40:53.115Z,6.55
2018-05-13T09:41:59.382Z,6.30
2018-05-13T09:43:05.821Z,6.20
2018-05-13T09:44:12.942Z,5.70
2018-05-13T09:45:19.973Z,5.50
2018-05-13T09:46:26.297Z,6.83
2018-05-13T09:47:32.800Z,6.60
2018-05-13T09:48:39.134Z,5.73
2018-05-13T09:49:44.928Z,6.20
2018-05-13T09:50:51.124Z,8.37
2018-05-13T09:51:57.132Z,9.93
2018-05-13T09:53:03.829Z,5.10
2018-05-13T09:54:10.674Z,5.03
2018-05-13T09:55:16.789Z,4.50
2018-05-13T09:56:22.806Z,4.70
2018-05-13T09:57:29.703Z,5.50
2018-05-13T09:58:37.062Z,4.82
2018-05-13T09:59:43.021Z,4.73
2018-05-13T10:00:49.430Z,5.07
2018-05-13T10:01:55.983Z,5.10
2018-05-13T10:03:02.022Z,5.87
2018-05-13T10:04:08.354Z,5.60
2018-05-13T10:05:14.920Z,5.57
2018-05-13T10:06:21.744Z,5.80
2018-05-13T10:07:30.081Z,6.13
2018-05-13T10:08:37.377Z,5.57
2018-05-13T10:09:43.411Z,5.33
2018-05-13T10:10:49.571Z,7.40
2018-05-13T10:11:55.882Z,5.63
2018-05-13T10:13:01.867Z,5.70
2018-05-13T10:14:08.895Z,5.77
2018-05-13T10:15:15.928Z,6.20
2018-05-13T10:16:23.877Z,6.60
2018-05-13T10:17:30.099Z,7.70
2018-05-13T10:18:36.281Z,6.50
2018-05-13T10:19:43.036Z,6.10
2018-05-13T10:20:50.449Z,6.37
2018-05-13T10:21:57.380Z,6.30
2018-05-13T10:23:04.580Z,5.90
2018-05-13T10:24:11.442Z,5.80
2018-05-13T10:25:17.748Z,6.00
2018-05-13T10:26:25.613Z,6.10
2018-05-13T10:27:32.681Z,6.10
2018-05-13T10:28:39.141Z,6.30
2018-05-13T10:29:45.107Z,6.13
2018-05-13T10:30:51.235Z,6.20
2018-05-13T10:31:57.463Z,5.83
2018-05-13T10:33:03.847Z,5.60
2018-05-13T10:34:09.937Z,7.30
2018-05-13T10:35:16.017Z,5.90
2018-05-13T10:36:23.432Z,5.60
2018-05-13T10:37:29.584Z,5.90
2018-05-13T10:38:35.512Z,5.83
2018-05-13T10:39:41.541Z,7.27
2018-05-13T10:40:47.755Z,6.37
2018-05-13T10:41:53.811Z,6.43
2018-05-13T10:42:59.918Z,6.43
2018-05-13T10:44:05.977Z,5.60
2018-05-13T10:45:12.058Z,5.77
2018-05-13T10:46:18.079Z,5.93
2018-05-13T10:47:24.349Z,6.70
2018-05-13T10:48:30.358Z,5.63
2018-05-13T10:49:36.352Z,6.20
2018-05-13T10:50:42.474Z,5.83
2018-05-13T10:51:48.625Z,5.43
2018-05-13T10:52:55.140Z,5.80
2018-05-13T10:54:02.685Z,5.80
2018-05-13T10:55:09.298Z,6.07
2018-05-13T10:56:16.149Z,4.97
2018-05-13T10:57:23.627Z,7.67
2018-05-13T10:58:30.977Z,5.77
2018-05-13T10:59:37.662Z,5.67
2018-05-13T11:00:44.136Z,6.00
2018-05-13T11:01:50.445Z,6.17
2018-05-13T11:02:56.743Z,8.03
2018-05-13T11:04:03.172Z,8.07
2018-05-13T11:05:09.792Z,6.73
2018-05-13T11:06:16.001Z,10.50
2018-05-13T11:07:25.030Z,5.63
2018-05-13T11:08:32.607Z,8.17
2018-05-13T11:09:39.542Z,5.33
2018-05-13T11:10:45.695Z,5.23
2018-05-13T11:11:52.064Z,5.37
2018-05-13T11:12:58.204Z,5.57
2018-05-13T11:14:04.277Z,5.43
2018-05-13T11:15:11.168Z,5.33
2018-05-13T11:16:17.925Z,7.40
2018-05-13T11:17:24.241Z,5.93
2018-05-13T11:18:31.062Z,6.30
2018-05-13T11:19:37.888Z,8.07
2018-05-13T11:20:44.614Z,6.30
2018-05-13T11:21:50.816Z,6.60
2018-05-13T11:22:57.025Z,5.27
2018-05-13T11:24:03.033Z,7.10
2018-05-13T11:25:09.091Z,5.10
2018-05-13T11:26:15.455Z,5.30
2018-05-13T11:27:21.864Z,5.30
2018-05-13T11:28:27.822Z,5.73
2018-05-13T11:29:33.872Z,5.67
2018-05-13T11:30:39.987Z,5.43
2018-05-13T11:31:45.946Z,5.50
2018-05-13T11:32:52.495Z,5.70
2018-05-13T11:33:58.161Z,5.67
2018-05-13T11:35:04.202Z,6.77
2018-05-13T11:36:10.200Z,5.60
2018-05-13T11:37:16.403Z,7.87
2018-05-13T11:38:22.360Z,5.63
2018-05-13T11:39:28.319Z,6.50
2018-05-13T11:40:34.297Z,6.47
2018-05-13T11:41:40.303Z,6.90
2018-05-13T11:42:46.647Z,6.70
2018-05-13T11:43:53.433Z,6.37
2018-05-13T11:45:00.077Z,5.60
2018-05-13T11:46:06.099Z,6.10
2018-05-13T11:47:12.496Z,7.03
2018-05-13T11:48:18.278Z,5.77
2018-05-13T11:49:24.321Z,6.90
2018-05-13T11:50:30.299Z,6.97
2018-05-13T11:51:36.280Z,6.20
2018-05-13T11:52:42.333Z,6.10
2018-05-13T11:53:48.308Z,6.17
2018-05-13T11:54:54.016Z,10.10
2018-05-13T11:56:00.011Z,6.50
2018-05-13T11:57:06.809Z,7.50
2018-05-13T11:58:12.856Z,7.40
2018-05-13T11:59:18.839Z,6.77
2018-05-13T12:00:24.835Z,7.57
2018-05-13T12:01:30.841Z,6.90
2018-05-13T12:02:36.589Z,6.93
2018-05-13T12:03:42.591Z,7.23
2018-05-13T12:04:49.315Z,8.10
2018-05-13T12:05:55.215Z,6.90
2018-05-13T12:07:01.219Z,7.60
2018-05-13T12:08:07.224Z,6.90
2018-05-13T12:09:13.120Z,7.10
2018-05-13T12:10:20.777Z,7.13
2018-05-13T12:11:26.743Z,6.33
2018-05-13T12:12:32.751Z,6.70
2018-05-13T12:13:38.782Z,6.43
2018-05-13T12:14:44.792Z,6.80
2018-05-13T12:15:50.816Z,6.43
2018-05-13T12:16:56.945Z,7.07
2018-05-13T12:18:02.910Z,5.90
2018-05-13T12:19:08.893Z,6.33
2018-05-13T12:20:14.917Z,5.30
2018-05-13T12:21:21.559Z,5.97
2018-05-13T12:22:27.505Z,4.90
2018-05-13T12:23:33.546Z,7.67
2018-05-13T12:24:39.514Z,5.67
2018-05-13T12:25:46.097Z,5.17
2018-05-13T12:26:52.143Z,5.00
2018-05-13T12:27:58.142Z,5.67
2018-05-13T12:29:04.302Z,5.00
2018-05-13T12:30:10.627Z,5.67
2018-05-13T12:31:16.915Z,5.00
2018-05-13T12:32:22.841Z,5.23
2018-05-13T12:33:29.024Z,4.63
2018-05-13T12:34:35.626Z,4.90
2018-05-13T12:35:41.976Z,5.40
2018-05-13T12:36:51.136Z,7.13
2018-05-13T12:37:56.798Z,5.17
2018-05-13T12:39:02.978Z,8.20
2018-05-13T12:40:08.855Z,4.70
2018-05-13T12:41:15.422Z,3.83
2018-05-13T12:42:21.352Z,4.13
2018-05-13T12:43:29.519Z,4.30
2018-05-13T12:44:36.489Z,5.90
2018-05-13T12:45:43.108Z,4.27
2018-05-13T12:46:49.580Z,4.03
2018-05-13T12:47:55.891Z,4.50
2018-05-13T12:49:01.973Z,5.47
2018-05-13T12:50:07.941Z,4.70
2018-05-13T12:51:13.946Z,4.70
2018-05-13T12:52:20.051Z,4.83
2018-05-13T12:53:26.735Z,5.90
2018-05-13T12:54:32.687Z,4.40
2018-05-13T12:55:38.982Z,5.67
2018-05-13T12:56:48.446Z,4.67
2018-05-13T12:57:54.751Z,6.00
2018-05-13T12:59:00.854Z,4.50
2018-05-13T13:00:07.370Z,4.70
2018-05-13T13:01:13.585Z,4.53
2018-05-13T13:02:19.786Z,5.20
2018-05-13T13:03:26.307Z,4.40
2018-05-13T13:04:32.614Z,7.10
2018-05-13T13:05:38.612Z,4.70
2018-05-13T13:06:45.019Z,4.87
2018-05-13T13:07:51.297Z,4.67
2018-05-13T13:08:57.699Z,4.00
2018-05-13T13:10:03.716Z,4.40
2018-05-13T13:11:09.615Z,5.13
2018-05-13T13:12:16.703Z,4.73
2018-05-13T13:13:23.755Z,4.30
2018-05-13T13:14:29.932Z,4.50
2018-05-13T13:15:35.929Z,6.43
2018-05-13T13:16:42.462Z,4.63
2018-05-13T13:17:48.754Z,5.10
2018-05-13T13:18:54.971Z,5.00
2018-05-13T13:20:00.763Z,3.93
2018-05-13T13:21:07.147Z,4.53
2018-05-13T13:22:14.282Z,5.90
2018-05-13T13:23:20.523Z,4.07
2018-05-13T13:24:26.719Z,4.30
2018-05-13T13:25:33.162Z,4.50
2018-05-13T13:26:39.968Z,4.30
2018-05-13T13:27:46.209Z,4.87
2018-05-13T13:28:52.506Z,4.40
2018-05-13T13:29:58.648Z,4.77
2018-05-13T13:31:04.722Z,5.63
2018-05-13T13:32:10.796Z,4.30
2018-05-13T13:33:17.065Z,4.53
2018-05-13T13:34:23.006Z,5.03
2018-05-13T13:35:29.035Z,5.47
2018-05-13T13:36:35.107Z,5.83
2018-05-13T13:37:41.504Z,4.50
2018-05-13T13:38:48.295Z,4.13
2018-05-13T13:39:55.050Z,5.00
2018-05-13T13:41:02.044Z,4.33
2018-05-13T13:42:08.070Z,4.77
2018-05-13T13:43:14.059Z,4.30
2018-05-13T13:44:21.368Z,4.30
2018-05-13T13:45:29.238Z,5.10
2018-05-13T13:46:36.904Z,4.60
2018-05-13T13:47:45.034Z,6.83
2018-05-13T13:48:56.563Z,5.77
2018-05-13T13:50:05.846Z,5.10
2018-05-13T13:51:13.984Z,4.30
2018-05-13T13:52:21.446Z,5.47
2018-05-13T13:53:31.092Z,6.10
2018-05-13T13:54:38.657Z,6.60
2018-05-13T13:55:45.180Z,6.00
2018-05-13T13:56:51.590Z,5.17
2018-05-13T13:57:57.888Z,5.27
2018-05-13T13:59:04.528Z,5.67
2018-05-13T14:00:10.412Z,4.87
2018-05-13T14:01:16.538Z,5.03
2018-05-13T14:02:22.583Z,5.27
2018-05-13T14:03:28.507Z,4.90
2018-05-13T14:04:35.347Z,5.93
2018-05-13T14:05:41.990Z,5.37
2018-05-13T14:06:48.608Z,5.63
2018-05-13T14:07:54.821Z,5.20
2018-05-13T14:09:00.521Z,4.93
2018-05-13T14:10:06.623Z,4.93
2018-05-13T14:11:12.641Z,4.33
2018-05-13T14:12:18.294Z,4.80
2018-05-13T14:13:25.970Z,4.40
2018-05-13T14:14:32.590Z,4.70
2018-05-13T14:15:38.801Z,4.60
2018-05-13T14:16:44.764Z,4.80
2018-05-13T14:17:50.782Z,5.47
2018-05-13T14:18:56.778Z,4.43
2018-05-13T14:20:03.196Z,4.80
2018-05-13T14:21:10.770Z,5.50
2018-05-13T14:22:17.182Z,6.30
2018-05-13T14:23:23.461Z,4.33
2018-05-13T14:24:29.748Z,4.30
2018-05-13T14:25:35.663Z,4.17
2018-05-13T14:26:42.022Z,4.33
2018-05-13T14:27:48.210Z,4.50
2018-05-13T14:28:54.205Z,5.47
2018-05-13T14:30:00.333Z,4.57